createdAt,value
2019-01-04T00:04:59.068Z,1.70
2019-01-04T00:13:14.536Z,1.70
2019-01-04T00:17:18.766Z,1.63
2019-01-04T00:21:23.061Z,1.77
2019-01-04T00:25:27.272Z,1.67
2019-01-04T00:29:31.549Z,1.80
2019-01-04T00:33:35.867Z,1.93
2019-01-04T00:37:40.127Z,1.60
2019-01-04T00:41:44.375Z,1.60
2019-01-04T00:45:48.654Z,1.67
2019-01-04T00:49:52.840Z,1.70
2019-01-04T00:53:57.107Z,1.50
2019-01-04T00:58:39.373Z,1.60
2019-01-04T01:03:21.721Z,2.27
2019-01-04T01:08:04.349Z,2.23
2019-01-04T01:12:47.017Z,1.47
2019-01-04T01:17:29.358Z,1.63
2019-01-04T01:22:10.110Z,1.70
2019-01-04T01:26:56.219Z,1.53
2019-01-04T01:31:38.530Z,1.70
2019-01-04T01:36:10.299Z,2.00
2019-01-04T01:40:52.608Z,2.30
2019-01-04T01:50:43.992Z,1.63
2019-01-04T01:54:48.249Z,2.00
2019-01-04T01:58:52.491Z,1.90
2019-01-04T02:02:56.839Z,1.90
2019-01-04T02:07:01.101Z,1.93
2019-01-04T02:11:05.350Z,1.53
2019-01-04T02:15:09.726Z,1.73
2019-01-04T02:19:14.013Z,2.00
2019-01-04T02:23:18.241Z,1.80
2019-01-04T02:27:22.683Z,1.67
2019-01-04T02:31:26.928Z,1.97
2019-01-04T02:35:31.213Z,1.70
2019-01-04T02:39:35.429Z,1.67
2019-01-04T02:43:39.663Z,2.20
2019-01-04T02:47:44.248Z,1.70
2019-01-04T02:51:48.540Z,1.70
2019-01-04T02:55:52.808Z,1.83
2019-01-04T02:59:57.453Z,1.80
2019-01-04T03:04:01.758Z,1.93
2019-01-04T03:08:06.051Z,2.07
2019-01-04T03:12:10.316Z,1.90
2019-01-04T03:16:14.595Z,2.13
2019-01-04T03:20:18.837Z,1.80
2019-01-04T03:24:23.095Z,1.97
2019-01-04T03:28:27.325Z,2.10
2019-01-04T03:32:31.625Z,1.60
2019-01-04T03:36:35.864Z,1.80
2019-01-04T03:40:40.105Z,1.80
2019-01-04T03:44:44.362Z,1.70
2019-01-04T03:48:48.618Z,1.60
2019-01-04T03:52:52.848Z,1.73
2019-01-04T03:56:57.111Z,1.73
2019-01-04T04:01:01.389Z,1.70
2019-01-04T04:05:05.778Z,1.60
2019-01-04T04:09:10.054Z,1.57
2019-01-04T04:13:14.318Z,1.50
2019-01-04T04:17:18.612Z,1.63
2019-01-04T04:21:22.856Z,1.30
2019-01-04T04:25:27.117Z,1.37
2019-01-04T04:29:31.429Z,1.07
2019-01-04T04:33:35.713Z,1.57
2019-01-04T04:37:39.967Z,1.60
2019-01-04T04:41:44.225Z,1.70
2019-01-04T04:45:48.477Z,1.63
2019-01-04T04:49:59.842Z,1.70
2019-01-04T04:54:04.120Z,1.57
2019-01-04T04:58:08.396Z,1.90
2019-01-04T05:02:12.641Z,2.03
2019-01-04T05:06:16.931Z,2.03
2019-01-04T05:10:21.186Z,1.93
2019-01-04T05:14:25.456Z,1.93
2019-01-04T05:18:29.754Z,1.90
2019-01-04T05:22:34.017Z,1.93
2019-01-04T05:26:38.237Z,1.83
2019-01-04T05:30:42.539Z,1.70
2019-01-04T05:34:46.769Z,2.00
2019-01-04T05:38:51.360Z,2.00
2019-01-04T05:42:55.569Z,1.80
2019-01-04T05:46:59.955Z,1.90
2019-01-04T05:51:04.161Z,1.80
2019-01-04T05:55:08.896Z,1.40
2019-01-04T05:59:13.175Z,1.60
2019-01-04T06:03:17.454Z,1.67
2019-01-04T06:07:21.749Z,2.03
2019-01-04T06:11:26.013Z,1.67
2019-01-04T06:15:30.235Z,1.63
2019-01-04T06:19:34.524Z,1.53
2019-01-04T06:23:38.767Z,1.83
2019-01-04T06:27:44.171Z,1.90
2019-01-04T06:31:49.030Z,1.67
2019-01-04T06:35:53.287Z,2.87
2019-01-04T06:39:57.619Z,1.90
2019-01-04T06:44:03.052Z,1.93
2019-01-04T06:48:07.835Z,1.90
2019-01-04T06:52:12.137Z,1.80
2019-01-04T06:56:16.425Z,2.10
2019-01-04T07:00:20.671Z,1.80
2019-01-04T07:04:24.924Z,1.80
2019-01-04T07:08:29.192Z,1.80
2019-01-04T07:13:12.838Z,1.87
2019-01-04T07:17:17.061Z,2.00
2019-01-04T07:21:21.372Z,2.17
2019-01-04T07:25:25.638Z,2.40
2019-01-04T07:29:30.172Z,2.60
2019-01-04T07:33:34.447Z,2.27
2019-01-04T07:37:38.704Z,2.00
2019-01-04T07:41:43.002Z,2.00
2019-01-04T07:45:47.278Z,2.33
2019-01-04T07:49:51.505Z,1.90
2019-01-04T07:53:55.785Z,2.40
2019-01-04T07:58:00.144Z,2.20
2019-01-04T08:02:42.479Z,2.37
2019-01-04T08:06:46.783Z,2.60
2019-01-04T08:10:51.011Z,2.73
2019-01-04T08:14:55.316Z,2.70
2019-01-04T08:18:59.568Z,2.57
2019-01-04T08:23:03.847Z,2.43
2019-01-04T08:27:08.102Z,3.30
2019-01-04T08:31:12.364Z,2.30
2019-01-04T08:35:16.611Z,3.07
2019-01-04T08:39:20.872Z,2.87
2019-01-04T08:43:25.108Z,2.40
2019-01-04T08:47:29.404Z,2.63
2019-01-04T08:51:33.725Z,2.70
2019-01-04T08:55:37.922Z,2.53
2019-01-04T08:59:42.243Z,2.67
2019-01-04T09:03:46.524Z,2.93
2019-01-04T09:07:50.802Z,2.70
2019-01-04T09:11:55.093Z,2.43
2019-01-04T09:15:59.368Z,2.27
2019-01-04T09:20:03.720Z,2.50
2019-01-04T09:24:07.980Z,2.40
2019-01-04T09:28:17.908Z,2.67
2019-01-04T09:32:18.268Z,2.70
2019-01-04T09:36:22.551Z,2.30
2019-01-04T09:40:27.060Z,2.70
2019-01-04T09:44:32.867Z,2.10
2019-01-04T09:48:37.146Z,2.63
2019-01-04T09:52:41.665Z,2.13
2019-01-04T09:56:45.954Z,2.33
2019-01-04T10:00:50.207Z,2.40
2019-01-04T10:04:54.486Z,2.07
2019-01-04T10:08:58.761Z,2.40
2019-01-04T10:13:03.042Z,2.20
2019-01-04T10:17:07.339Z,2.17
2019-01-04T10:21:11.693Z,3.00
2019-01-04T10:25:16.282Z,2.10
2019-01-04T10:29:20.607Z,2.40
2019-01-04T10:33:24.838Z,2.00
2019-01-04T10:37:29.110Z,2.00
2019-01-04T10:41:33.387Z,1.73
2019-01-04T10:45:37.630Z,1.70
2019-01-04T10:49:41.893Z,1.53
2019-01-04T10:53:46.130Z,1.80
2019-01-04T10:57:50.403Z,1.90
2019-01-04T11:01:54.684Z,1.93
2019-01-04T11:05:58.911Z,1.80
2019-01-04T11:10:03.160Z,1.87
2019-01-04T11:14:07.430Z,1.60
2019-01-04T11:18:11.753Z,1.40
2019-01-04T11:22:54.063Z,1.60
2019-01-04T11:27:03.921Z,1.30
2019-01-04T11:31:30.403Z,1.30
2019-01-04T11:36:12.731Z,1.60
2019-01-04T11:40:55.050Z,1.50
2019-01-04T11:45:21.392Z,1.50
2019-01-04T11:50:03.720Z,1.40
2019-01-04T11:54:12.784Z,1.90
2019-01-04T11:58:17.034Z,1.80
2019-01-04T12:02:26.369Z,1.97
2019-01-04T12:06:27.379Z,1.80
2019-01-04T12:10:31.647Z,1.83
2019-01-04T12:14:41.214Z,1.90
2019-01-04T12:18:41.876Z,1.97
2019-01-04T12:22:46.116Z,2.07
2019-01-04T12:26:50.379Z,1.87
2019-01-04T12:30:55.050Z,2.17
2019-01-04T12:34:59.307Z,2.20
2019-01-04T12:43:47.925Z,2.10
2019-01-04T12:47:53.166Z,2.23
2019-01-04T12:51:57.466Z,2.90
2019-01-04T12:56:01.698Z,2.33
2019-01-04T13:00:07.538Z,2.30
2019-01-04T13:04:11.753Z,2.50
2019-01-04T13:08:15.994Z,2.50
2019-01-04T13:12:20.246Z,3.17
2019-01-04T13:16:24.511Z,3.30
2019-01-04T13:20:28.745Z,2.90
2019-01-04T13:24:32.995Z,2.57
2019-01-04T13:28:37.275Z,3.20
2019-01-04T13:32:41.512Z,3.20
2019-01-04T13:36:45.808Z,3.00
2019-01-04T13:40:50.013Z,3.00
2019-01-04T13:44:54.285Z,3.27
2019-01-04T13:48:58.511Z,3.90
2019-01-04T13:53:02.781Z,4.57
2019-01-04T13:57:07.066Z,3.60
2019-01-04T14:01:11.301Z,4.13
2019-01-04T14:05:15.569Z,3.90
2019-01-04T14:09:19.828Z,4.33
2019-01-04T14:13:24.089Z,4.17
2019-01-04T14:17:28.329Z,4.27
2019-01-04T14:21:32.555Z,3.20
2019-01-04T14:25:36.825Z,3.00
2019-01-04T14:29:41.085Z,3.07
2019-01-04T14:33:45.376Z,3.50
2019-01-04T14:37:49.667Z,2.70
2019-01-04T14:41:53.920Z,2.47
2019-01-04T14:45:58.181Z,2.67
2019-01-04T14:50:02.539Z,3.00
2019-01-04T14:54:06.799Z,3.00
2019-01-04T14:58:11.055Z,2.77
2019-01-04T15:02:15.311Z,3.60
2019-01-04T15:06:19.576Z,3.40
2019-01-04T15:10:23.769Z,3.70
2019-01-04T15:14:28.035Z,3.70
2019-01-04T15:18:32.531Z,4.40
2019-01-04T15:22:36.830Z,4.07
2019-01-04T15:26:41.112Z,4.60
2019-01-04T15:30:45.365Z,4.77
2019-01-04T15:34:49.637Z,5.20
2019-01-04T15:38:53.872Z,5.30
2019-01-04T15:42:58.463Z,5.37
2019-01-04T15:47:02.732Z,5.23
2019-01-04T15:51:07.008Z,5.30
2019-01-04T15:55:11.589Z,4.97
2019-01-04T15:59:15.815Z,4.20
2019-01-04T16:03:20.102Z,4.53
2019-01-04T16:07:24.369Z,3.90
2019-01-04T16:11:29.005Z,4.27
2019-01-04T16:15:33.234Z,4.03
2019-01-04T16:19:37.525Z,4.63
2019-01-04T16:23:41.759Z,5.13
2019-01-04T16:27:46.012Z,5.07
2019-01-04T16:31:50.239Z,5.23
2019-01-04T16:35:54.521Z,5.03
2019-01-04T16:39:59.108Z,4.93
2019-01-04T16:44:07.253Z,4.73
2019-01-04T16:48:09.348Z,5.43
2019-01-04T16:52:13.578Z,4.50
2019-01-04T16:56:17.815Z,4.63
2019-01-04T17:00:22.062Z,5.23
2019-01-04T17:04:26.358Z,4.30
2019-01-04T17:08:30.582Z,4.53
2019-01-04T17:12:34.860Z,4.37
2019-01-04T17:16:39.149Z,4.33
2019-01-04T17:20:43.427Z,4.63
2019-01-04T17:24:48.050Z,4.93
2019-01-04T17:28:52.240Z,4.40
2019-01-04T17:32:56.557Z,4.53
2019-01-04T17:37:00.835Z,4.63
2019-01-04T17:41:05.110Z,3.93
2019-01-04T17:45:09.590Z,3.90
2019-01-04T17:49:13.819Z,5.13
2019-01-04T17:53:18.226Z,4.53
2019-01-04T17:57:22.987Z,4.40
2019-01-04T18:01:27.458Z,4.10
2019-01-04T18:05:31.948Z,4.37
2019-01-04T18:09:36.304Z,5.20
2019-01-04T18:13:40.758Z,4.80
2019-01-04T18:17:44.992Z,5.10
2019-01-04T18:21:49.256Z,4.60
2019-01-04T18:25:53.515Z,4.73
2019-01-04T18:29:57.847Z,4.60
2019-01-04T18:34:02.135Z,4.20
2019-01-04T18:38:06.446Z,4.07
2019-01-04T18:42:10.712Z,3.77
2019-01-04T18:46:14.972Z,3.60
2019-01-04T18:50:22.244Z,4.40
2019-01-04T18:54:26.459Z,4.20
2019-01-04T18:58:30.740Z,3.80
2019-01-04T19:02:34.969Z,4.10
2019-01-04T19:06:39.251Z,4.33
2019-01-04T19:10:43.520Z,4.10
2019-01-04T19:14:47.776Z,3.87
2019-01-04T19:19:10.967Z,4.00
2019-01-04T19:23:15.247Z,4.30
2019-01-04T19:27:19.455Z,4.50
2019-01-04T19:35:54.397Z,3.30
2019-01-04T19:39:58.676Z,3.47
2019-01-04T19:44:02.951Z,3.40
2019-01-04T19:48:07.136Z,2.77
2019-01-04T19:52:11.416Z,3.87
2019-01-04T19:56:15.711Z,3.37
2019-01-04T20:00:19.934Z,3.30
2019-01-04T20:04:24.216Z,3.27
2019-01-04T20:14:31.037Z,3.30
2019-01-04T20:23:36.490Z,3.57
2019-01-04T20:27:49.233Z,6.23
2019-01-04T20:32:09.099Z,3.47
2019-01-04T20:36:32.235Z,3.60
2019-01-04T20:40:57.935Z,3.50
2019-01-04T20:45:21.149Z,3.60
2019-01-04T20:49:44.394Z,3.03
2019-01-04T20:54:07.596Z,3.70
2019-01-04T20:58:30.765Z,3.60
2019-01-04T21:02:54.368Z,3.73
2019-01-04T21:07:08.549Z,3.40
2019-01-04T21:11:31.746Z,3.30
2019-01-04T21:15:54.920Z,3.57
2019-01-04T21:20:18.136Z,3.40
2019-01-04T21:24:41.326Z,3.03
2019-01-04T21:29:04.493Z,3.60
2019-01-04T21:33:27.698Z,3.33
2019-01-04T21:37:50.894Z,3.37
2019-01-04T21:42:14.081Z,3.63
2019-01-04T21:46:37.406Z,3.57
2019-01-04T21:51:00.980Z,3.60
2019-01-04T21:55:24.201Z,3.60
2019-01-04T21:59:47.379Z,3.10
2019-01-04T22:04:10.601Z,2.90
2019-01-04T22:08:33.783Z,3.53
2019-01-04T22:12:56.962Z,3.37
2019-01-04T22:17:21.971Z,3.10
2019-01-04T22:21:45.177Z,3.63
2019-01-04T22:30:33.649Z,3.20
2019-01-04T22:34:51.669Z,4.13
2019-01-04T22:39:14.938Z,3.27
2019-01-04T22:43:38.134Z,3.40
2019-01-04T22:48:01.308Z,3.90
2019-01-04T22:52:24.527Z,3.50
2019-01-04T22:56:47.733Z,3.63
2019-01-04T23:01:30.559Z,3.03
2019-01-04T23:14:49.866Z,3.23
2019-01-04T23:19:13.042Z,3.37
2019-01-04T23:23:36.215Z,3.40
2019-01-04T23:27:59.407Z,3.07
2019-01-04T23:32:16.198Z,3.30
2019-01-04T23:36:40.559Z,3.53
2019-01-04T23:45:29.071Z,3.40
2019-01-04T23:49:52.298Z,2.90
2019-01-04T23:54:15.522Z,3.10
2019-01-04T23:58:38.678Z,3.17
